PWSweather.com
Personal Weather Stations
Station Observations
BERGSLAGEN
Bergslagen, NoraSE

BergslagenNoraSE

Lat: 59.532278, Lon: 15.016132

Elevation: 492

Station Type: Davis Vantage Pro2 Plus Wireless

http://www.weather.tallasen.se

Latest ConditionsUpdated 5:00:03 AM GMT+01:01 Saturday, Sep 22, 2018
Currently Today's Max Today's Min Today's Average
Temperature 50.4°F10.2°C 51.8°F11.0°C 48.7°F9.3°C 49.7°F9.8°C
Dew Point 44.7°F7.1°C 46.0°F7.8°C 42.9°F6.1°C 44.8°F7.1°C
Winds 9.0 mph W14.5 kmh W 9.0 mph -14.5 kmh - - 6.4 mph 10.3 kmh
Wind Gusts 21.0 mph33.8 kmh 28.0 mph45.1 kmh - -
Humidity 81% 89% 72% 83%
Pressure 29.10 in985.4 mb 29.10 in985.4 mb 29.04 in983.4 mb -
Precipitation - 0.03 in0.8 mm - -
Hour Temp Dew Point Humidity Winds Wind Gusts Pressure Precip Precip Rate Daily Precip Total
05:00 AM 50.4°F10.2°C 44.7°F7.1°C 81% 9.0 mph W14.5 kmh W 21.0 mph33.8 kmh 29.10 in985.4 mb 0.00 in0.0 mm 0.00 in0.0 mm 0.03 in0.8 mm
04:45 AM 50.5°F10.3°C 44.9°F7.2°C 81% 9.0 mph W14.5 kmh W 20.0 mph32.2 kmh 29.08 in984.8 mb 0.00 in0.0 mm 0.00 in0.0 mm 0.03 in0.8 mm
04:30 AM 50.4°F10.2°C 45.1°F7.3°C 82% 8.0 mph WSW12.9 kmh WSW 25.0 mph40.2 kmh 29.07 in984.4 mb 0.01 in0.3 mm 0.00 in0.0 mm 0.03 in0.8 mm
04:15 AM 50.4°F10.2°C 45.4°F7.4°C 83% 6.0 mph W9.7 kmh W 20.0 mph32.2 kmh 29.07 in984.4 mb 0.01 in0.3 mm 0.00 in0.0 mm 0.03 in0.8 mm
04:00 AM 50.0°F10.0°C 45.4°F7.4°C 84% 8.0 mph WSW12.9 kmh WSW 20.0 mph32.2 kmh 29.06 in984.1 mb 0.01 in0.3 mm 0.00 in0.0 mm 0.03 in0.8 mm
03:45 AM 49.5°F9.7°C 45.4°F7.4°C 86% 7.0 mph WSW11.3 kmh WSW 21.0 mph33.8 kmh 29.06 in984.1 mb 0.01 in0.3 mm 0.04 in1.0 mm 0.03 in0.8 mm
03:30 AM 49.3°F9.6°C 45.9°F7.7°C 88% 5.0 mph WSW8.0 kmh WSW 14.0 mph22.5 kmh 29.07 in984.4 mb 0.00 in0.0 mm 0.00 in0.0 mm 0.02 in0.5 mm
03:15 AM 49.1°F9.5°C 46.0°F7.8°C 89% 6.0 mph W9.7 kmh W 25.0 mph40.2 kmh 29.07 in984.4 mb 0.00 in0.0 mm 0.00 in0.0 mm 0.02 in0.5 mm
03:00 AM 49.1°F9.5°C 45.7°F7.6°C 88% 6.0 mph W9.7 kmh W 19.0 mph30.6 kmh 29.06 in984.1 mb 0.01 in0.3 mm 0.00 in0.0 mm 0.02 in0.5 mm
02:45 AM 49.1°F9.5°C 45.4°F7.4°C 87% 7.0 mph W11.3 kmh W 21.0 mph33.8 kmh 29.05 in983.7 mb 0.01 in0.3 mm 0.00 in0.0 mm 0.02 in0.5 mm
02:30 AM 48.7°F9.3°C 45.3°F7.4°C 88% 7.0 mph WSW11.3 kmh WSW 19.0 mph30.6 kmh 29.05 in983.7 mb 0.02 in0.5 mm 0.00 in0.0 mm 0.02 in0.5 mm
02:15 AM 48.7°F9.3°C 45.3°F7.4°C 88% 6.0 mph WSW9.7 kmh WSW 17.0 mph27.4 kmh 29.05 in983.7 mb 0.02 in0.5 mm 0.04 in1.0 mm 0.02 in0.5 mm
02:00 AM 48.7°F9.3°C 45.0°F7.2°C 87% 7.0 mph SW11.3 kmh SW 16.0 mph25.7 kmh 29.05 in983.7 mb 0.01 in0.3 mm 0.00 in0.0 mm 0.02 in0.5 mm
01:45 AM 48.9°F9.4°C 44.6°F7.0°C 85% 3.0 mph SW4.8 kmh SW 13.0 mph20.9 kmh 29.04 in983.4 mb 0.01 in0.3 mm 0.04 in1.0 mm 0.02 in0.5 mm
01:30 AM 49.1°F9.5°C 44.5°F6.9°C 84% 5.0 mph S8.0 kmh S 15.0 mph24.1 kmh 29.04 in983.4 mb 0.00 in0.0 mm 0.00 in0.0 mm 0.01 in0.3 mm
01:15 AM 49.6°F9.8°C 44.4°F6.9°C 82% 5.0 mph SW8.0 kmh SW 18.0 mph29.0 kmh 29.05 in983.7 mb 0.01 in0.3 mm 0.00 in0.0 mm 0.01 in0.3 mm
01:00 AM 49.8°F9.9°C 43.9°F6.6°C 80% 5.0 mph SW8.0 kmh SW 22.0 mph35.4 kmh 29.05 in983.7 mb 0.01 in0.3 mm 0.00 in0.0 mm 0.01 in0.3 mm
12:45 AM 49.6°F9.8°C 44.0°F6.7°C 81% 5.0 mph S8.0 kmh S 21.0 mph33.8 kmh 29.06 in984.1 mb 0.01 in0.3 mm 0.00 in0.0 mm 0.01 in0.3 mm
12:30 AM 50.4°F10.2°C 44.1°F6.7°C 79% 7.0 mph S11.3 kmh S 28.0 mph45.1 kmh 29.08 in984.8 mb 0.01 in0.3 mm 0.04 in1.0 mm 0.01 in0.3 mm
12:15 AM 51.3°F10.7°C 42.9°F6.1°C 73% 7.0 mph S11.3 kmh S 23.0 mph37.0 kmh 29.08 in984.8 mb 0.00 in0.0 mm 0.00 in0.0 mm 0.00 in0.0 mm
12:00 AM 51.8°F11.0°C 43.1°F6.2°C 72% 7.0 mph S11.3 kmh S 25.0 mph40.2 kmh 29.08 in984.8 mb 0.00 in0.0 mm 0.00 in0.0 mm 0.00 in0.0 mm